Sullivan, New Hampshire
Current Conditions -  °F | °C
As of 7:35 AM on Tuesday 27 Jan 2015 (Local Time) from KEEN Reporting Station
Overcast Overcast  
Wind Chill: -1°   Ceiling: 1200
Heat Index: 14°   Visibility: 0.75mi
Dew Point:   Wind: 15mph
Humidity: 79%   Direction: 350°N
Pressure: 29.69"   Gusts: NA
Location:  43.01°N, 72.22°W
Report Text: KEEN 271235Z AUTO 35013KT 3/4SM OVC012 M10/M13 A2969 RMK AO1
Loading
Personal Weather Stations






























Interactive Weather Map New forecast layout! Learn more

10-Day Weather Forecast

Advertisements
Track Severe Weather on mobile